sensor_id;sensor_type;location;lat;lon;timestamp;P1;durP1;ratioP1;P2;durP2;ratioP2
15022;SDS011;19850;49.576;10.880;2023-03-01T00:03:42;13.30;;;11.43;;
15022;SDS011;19850;49.576;10.880;2023-03-01T00:07:45;11.97;;;10.67;;
15022;SDS011;19850;49.576;10.880;2023-03-01T00:11:48;14.00;;;11.10;;
15022;SDS011;19850;49.576;10.880;2023-03-01T00:15:52;12.97;;;11.53;;
15022;SDS011;19850;49.576;10.880;2023-03-01T00:19:55;15.43;;;11.33;;
15022;SDS011;19850;49.576;10.880;2023-03-01T00:23:58;14.70;;;11.17;;
15022;SDS011;19850;49.576;10.880;2023-03-01T00:28:01;14.60;;;11.07;;
15022;SDS011;19850;49.576;10.880;2023-03-01T00:32:05;12.60;;;10.93;;
15022;SDS011;19850;49.576;10.880;2023-03-01T00:36:08;14.23;;;11.70;;
15022;SDS011;19850;49.576;10.880;2023-03-01T00:40:12;15.97;;;11.03;;
15022;SDS011;19850;49.576;10.880;2023-03-01T00:44:17;12.87;;;11.47;;
15022;SDS011;19850;49.576;10.880;2023-03-01T00:48:21;13.93;;;11.77;;
15022;SDS011;19850;49.576;10.880;2023-03-01T00:52:24;14.13;;;11.60;;
15022;SDS011;19850;49.576;10.880;2023-03-01T00:56:28;13.73;;;11.80;;
15022;SDS011;19850;49.576;10.880;2023-03-01T01:00:32;13.13;;;11.20;;
15022;SDS011;19850;49.576;10.880;2023-03-01T01:04:36;14.23;;;11.60;;
15022;SDS011;19850;49.576;10.880;2023-03-01T01:08:42;14.33;;;11.73;;
15022;SDS011;19850;49.576;10.880;2023-03-01T01:12:45;13.27;;;11.90;;
15022;SDS011;19850;49.576;10.880;2023-03-01T01:16:52;14.13;;;12.33;;
15022;SDS011;19850;49.576;10.880;2023-03-01T01:20:56;15.70;;;12.30;;
15022;SDS011;19850;49.576;10.880;2023-03-01T01:25:00;13.87;;;12.37;;
15022;SDS011;19850;49.576;10.880;2023-03-01T01:29:03;13.80;;;11.43;;
15022;SDS011;19850;49.576;10.880;2023-03-01T01:33:07;13.23;;;11.83;;
15022;SDS011;19850;49.576;10.880;2023-03-01T01:37:11;13.43;;;11.77;;
15022;SDS011;19850;49.576;10.880;2023-03-01T01:41:16;13.90;;;11.97;;
15022;SDS011;19850;49.576;10.880;2023-03-01T01:45:24;14.27;;;12.20;;
15022;SDS011;19850;49.576;10.880;2023-03-01T01:49:32;13.97;;;11.93;;
15022;SDS011;19850;49.576;10.880;2023-03-01T01:53:39;15.27;;;12.57;;
15022;SDS011;19850;49.576;10.880;2023-03-01T01:57:43;15.50;;;12.57;;
15022;SDS011;19850;49.576;10.880;2023-03-01T02:01:47;12.77;;;11.40;;
15022;SDS011;19850;49.576;10.880;2023-03-01T02:05:52;13.67;;;12.03;;
15022;SDS011;19850;49.576;10.880;2023-03-01T02:10:02;15.33;;;12.40;;
15022;SDS011;19850;49.576;10.880;2023-03-01T02:14:05;14.63;;;12.43;;
15022;SDS011;19850;49.576;10.880;2023-03-01T02:18:08;14.33;;;12.33;;
15022;SDS011;19850;49.576;10.880;2023-03-01T02:22:15;13.57;;;12.13;;
15022;SDS011;19850;49.576;10.880;2023-03-01T02:26:25;14.90;;;12.90;;
15022;SDS011;19850;49.576;10.880;2023-03-01T02:30:35;14.37;;;11.97;;
15022;SDS011;19850;49.576;10.880;2023-03-01T02:34:38;15.50;;;12.53;;
15022;SDS011;19850;49.576;10.880;2023-03-01T02:38:41;14.77;;;12.53;;
15022;SDS011;19850;49.576;10.880;2023-03-01T02:42:47;15.37;;;12.20;;
15022;SDS011;19850;49.576;10.880;2023-03-01T02:46:55;14.87;;;12.37;;
15022;SDS011;19850;49.576;10.880;2023-03-01T02:51:03;15.90;;;12.60;;
15022;SDS011;19850;49.576;10.880;2023-03-01T02:55:08;14.20;;;12.70;;
15022;SDS011;19850;49.576;10.880;2023-03-01T02:59:12;14.07;;;11.63;;
15022;SDS011;19850;49.576;10.880;2023-03-01T03:03:17;14.23;;;12.27;;
15022;SDS011;19850;49.576;10.880;2023-03-01T03:07:21;13.97;;;12.23;;
15022;SDS011;19850;49.576;10.880;2023-03-01T03:11:24;14.70;;;11.67;;
15022;SDS011;19850;49.576;10.880;2023-03-01T03:15:27;15.10;;;12.60;;
15022;SDS011;19850;49.576;10.880;2023-03-01T03:19:33;15.50;;;12.17;;
15022;SDS011;19850;49.576;10.880;2023-03-01T03:23:36;13.23;;;11.47;;
15022;SDS011;19850;49.576;10.880;2023-03-01T03:27:40;13.83;;;12.33;;
15022;SDS011;19850;49.576;10.880;2023-03-01T03:31:43;14.80;;;12.20;;
15022;SDS011;19850;49.576;10.880;2023-03-01T03:35:48;16.53;;;13.47;;
15022;SDS011;19850;49.576;10.880;2023-03-01T03:39:51;14.60;;;11.80;;
15022;SDS011;19850;49.576;10.880;2023-03-01T03:43:55;14.27;;;11.27;;
15022;SDS011;19850;49.576;10.880;2023-03-01T03:47:58;15.47;;;12.80;;
15022;SDS011;19850;49.576;10.880;2023-03-01T03:52:03;14.70;;;12.70;;
15022;SDS011;19850;49.576;10.880;2023-03-01T03:56:07;14.87;;;12.00;;
15022;SDS011;19850;49.576;10.880;2023-03-01T04:00:11;13.70;;;12.00;;
15022;SDS011;19850;49.576;10.880;2023-03-01T04:04:14;15.27;;;12.13;;
15022;SDS011;19850;49.576;10.880;2023-03-01T04:08:21;16.30;;;12.10;;
15022;SDS011;19850;49.576;10.880;2023-03-01T04:12:24;14.67;;;12.40;;
15022;SDS011;19850;49.576;10.880;2023-03-01T04:16:27;13.70;;;12.23;;
15022;SDS011;19850;49.576;10.880;2023-03-01T04:20:32;14.83;;;12.27;;
15022;SDS011;19850;49.576;10.880;2023-03-01T04:24:37;14.63;;;12.27;;
15022;SDS011;19850;49.576;10.880;2023-03-01T04:28:40;14.37;;;12.07;;
15022;SDS011;19850;49.576;10.880;2023-03-01T04:32:46;16.17;;;12.40;;
15022;SDS011;19850;49.576;10.880;2023-03-01T04:36:48;15.27;;;11.93;;
15022;SDS011;19850;49.576;10.880;2023-03-01T04:40:53;15.57;;;12.57;;
15022;SDS011;19850;49.576;10.880;2023-03-01T04:44:56;15.17;;;12.83;;
15022;SDS011;19850;49.576;10.880;2023-03-01T04:48:59;15.30;;;12.53;;
15022;SDS011;19850;49.576;10.880;2023-03-01T04:53:02;14.97;;;12.73;;
15022;SDS011;19850;49.576;10.880;2023-03-01T04:57:06;14.43;;;12.23;;
15022;SDS011;19850;49.576;10.880;2023-03-01T05:01:09;17.07;;;13.10;;
15022;SDS011;19850;49.576;10.880;2023-03-01T05:05:16;16.13;;;13.33;;
15022;SDS011;19850;49.576;10.880;2023-03-01T05:09:19;14.93;;;12.00;;
15022;SDS011;19850;49.576;10.880;2023-03-01T05:13:23;14.93;;;12.90;;
15022;SDS011;19850;49.576;10.880;2023-03-01T05:17:26;15.23;;;12.77;;
15022;SDS011;19850;49.576;10.880;2023-03-01T05:21:29;15.40;;;12.97;;
15022;SDS011;19850;49.576;10.880;2023-03-01T05:25:33;14.17;;;12.63;;
15022;SDS011;19850;49.576;10.880;2023-03-01T05:29:37;18.40;;;12.53;;
15022;SDS011;19850;49.576;10.880;2023-03-01T05:33:40;15.73;;;12.33;;
15022;SDS011;19850;49.576;10.880;2023-03-01T05:37:49;17.07;;;12.70;;
15022;SDS011;19850;49.576;10.880;2023-03-01T05:41:52;15.13;;;13.23;;
15022;SDS011;19850;49.576;10.880;2023-03-01T05:45:58;15.33;;;12.50;;
15022;SDS011;19850;49.576;10.880;2023-03-01T05:50:01;18.53;;;12.97;;
15022;SDS011;19850;49.576;10.880;2023-03-01T05:54:04;16.37;;;12.90;;
15022;SDS011;19850;49.576;10.880;2023-03-01T05:58:09;16.90;;;13.27;;
15022;SDS011;19850;49.576;10.880;2023-03-01T06:02:14;16.93;;;13.73;;
15022;SDS011;19850;49.576;10.880;2023-03-01T06:06:17;17.27;;;13.03;;
15022;SDS011;19850;49.576;10.880;2023-03-01T06:10:21;15.63;;;12.93;;
15022;SDS011;19850;49.576;10.880;2023-03-01T06:14:24;17.93;;;14.00;;
15022;SDS011;19850;49.576;10.880;2023-03-01T06:18:28;15.83;;;13.83;;
15022;SDS011;19850;49.576;10.880;2023-03-01T06:22:31;18.03;;;13.37;;
15022;SDS011;19850;49.576;10.880;2023-03-01T06:26:34;17.67;;;13.43;;
15022;SDS011;19850;49.576;10.880;2023-03-01T06:30:37;19.13;;;13.90;;
15022;SDS011;19850;49.576;10.880;2023-03-01T06:34:41;18.53;;;13.70;;
15022;SDS011;19850;49.576;10.880;2023-03-01T06:38:45;16.13;;;13.70;;
15022;SDS011;19850;49.576;10.880;2023-03-01T06:42:48;16.10;;;13.90;;
15022;SDS011;19850;49.576;10.880;2023-03-01T06:46:52;16.63;;;13.20;;
15022;SDS011;19850;49.576;10.880;2023-03-01T06:50:59;17.40;;;13.83;;
15022;SDS011;19850;49.576;10.880;2023-03-01T06:55:03;16.27;;;13.53;;
15022;SDS011;19850;49.576;10.880;2023-03-01T06:59:06;16.73;;;13.90;;
15022;SDS011;19850;49.576;10.880;2023-03-01T07:03:09;18.13;;;14.40;;
15022;SDS011;19850;49.576;10.880;2023-03-01T07:07:13;17.27;;;12.93;;
15022;SDS011;19850;49.576;10.880;2023-03-01T07:11:16;19.67;;;14.33;;
15022;SDS011;19850;49.576;10.880;2023-03-01T07:15:19;17.27;;;13.97;;
15022;SDS011;19850;49.576;10.880;2023-03-01T07:19:22;15.70;;;12.77;;
15022;SDS011;19850;49.576;10.880;2023-03-01T07:23:27;17.20;;;13.77;;
15022;SDS011;19850;49.576;10.880;2023-03-01T07:27:29;18.33;;;14.33;;
15022;SDS011;19850;49.576;10.880;2023-03-01T07:31:33;20.13;;;13.30;;
15022;SDS011;19850;49.576;10.880;2023-03-01T07:35:36;16.00;;;13.57;;
15022;SDS011;19850;49.576;10.880;2023-03-01T07:39:42;17.77;;;13.27;;
15022;SDS011;19850;49.576;10.880;2023-03-01T07:43:45;15.80;;;12.77;;
15022;SDS011;19850;49.576;10.880;2023-03-01T07:47:49;16.50;;;14.40;;
15022;SDS011;19850;49.576;10.880;2023-03-01T07:51:52;15.23;;;13.30;;
15022;SDS011;19850;49.576;10.880;2023-03-01T07:56:03;14.23;;;12.73;;
15022;SDS011;19850;49.576;10.880;2023-03-01T08:00:09;16.47;;;13.27;;
15022;SDS011;19850;49.576;10.880;2023-03-01T08:04:13;15.07;;;10.53;;
15022;SDS011;19850;49.576;10.880;2023-03-01T08:08:15;17.00;;;13.73;;
15022;SDS011;19850;49.576;10.880;2023-03-01T08:12:20;15.30;;;12.77;;
15022;SDS011;19850;49.576;10.880;2023-03-01T08:16:23;14.27;;;12.77;;
15022;SDS011;19850;49.576;10.880;2023-03-01T08:20:26;15.77;;;13.07;;
15022;SDS011;19850;49.576;10.880;2023-03-01T08:24:29;14.37;;;12.67;;
15022;SDS011;19850;49.576;10.880;2023-03-01T08:28:33;16.40;;;13.80;;
15022;SDS011;19850;49.576;10.880;2023-03-01T08:32:36;14.47;;;12.90;;
15022;SDS011;19850;49.576;10.880;2023-03-01T08:36:40;15.17;;;13.57;;
15022;SDS011;19850;49.576;10.880;2023-03-01T08:40:45;17.67;;;14.57;;
15022;SDS011;19850;49.576;10.880;2023-03-01T08:44:49;16.00;;;13.77;;
15022;SDS011;19850;49.576;10.880;2023-03-01T08:48:52;19.00;;;14.67;;
15022;SDS011;19850;49.576;10.880;2023-03-01T08:52:55;16.37;;;14.67;;
15022;SDS011;19850;49.576;10.880;2023-03-01T08:56:58;15.17;;;13.57;;
15022;SDS011;19850;49.576;10.880;2023-03-01T09:01:07;22.30;;;15.30;;
15022;SDS011;19850;49.576;10.880;2023-03-01T09:05:11;17.97;;;15.40;;
15022;SDS011;19850;49.576;10.880;2023-03-01T09:09:14;16.77;;;15.03;;
15022;SDS011;19850;49.576;10.880;2023-03-01T09:13:18;17.30;;;14.70;;
15022;SDS011;19850;49.576;10.880;2023-03-01T09:17:22;15.83;;;13.30;;
15022;SDS011;19850;49.576;10.880;2023-03-01T09:21:25;17.87;;;15.23;;
15022;SDS011;19850;49.576;10.880;2023-03-01T09:25:40;17.07;;;14.60;;
15022;SDS011;19850;49.576;10.880;2023-03-01T09:29:43;16.03;;;14.33;;
15022;SDS011;19850;49.576;10.880;2023-03-01T09:33:47;16.37;;;13.77;;
15022;SDS011;19850;49.576;10.880;2023-03-01T09:37:51;17.53;;;15.03;;
15022;SDS011;19850;49.576;10.880;2023-03-01T09:41:55;16.87;;;13.47;;
15022;SDS011;19850;49.576;10.880;2023-03-01T09:46:04;16.27;;;13.30;;
15022;SDS011;19850;49.576;10.880;2023-03-01T09:50:11;14.20;;;12.70;;
15022;SDS011;19850;49.576;10.880;2023-03-01T09:54:15;15.37;;;12.77;;
15022;SDS011;19850;49.576;10.880;2023-03-01T09:58:36;15.87;;;13.70;;
15022;SDS011;19850;49.576;10.880;2023-03-01T10:02:42;17.40;;;14.77;;
15022;SDS011;19850;49.576;10.880;2023-03-01T10:06:49;18.10;;;16.13;;
15022;SDS011;19850;49.576;10.880;2023-03-01T10:11:00;16.60;;;12.90;;
15022;SDS011;19850;49.576;10.880;2023-03-01T10:15:04;23.13;;;13.97;;
15022;SDS011;19850;49.576;10.880;2023-03-01T10:19:10;17.37;;;15.43;;
15022;SDS011;19850;49.576;10.880;2023-03-01T10:23:16;18.20;;;14.90;;
15022;SDS011;19850;49.576;10.880;2023-03-01T10:27:19;15.13;;;12.57;;
15022;SDS011;19850;49.576;10.880;2023-03-01T10:31:25;15.20;;;13.43;;
15022;SDS011;19850;49.576;10.880;2023-03-01T10:35:33;19.17;;;16.00;;
15022;SDS011;19850;49.576;10.880;2023-03-01T10:39:38;15.63;;;13.83;;
15022;SDS011;19850;49.576;10.880;2023-03-01T10:43:57;20.30;;;12.60;;
15022;SDS011;19850;49.576;10.880;2023-03-01T10:48:12;16.20;;;12.50;;
15022;SDS011;19850;49.576;10.880;2023-03-01T10:52:17;15.70;;;12.53;;
15022;SDS011;19850;49.576;10.880;2023-03-01T10:56:22;14.60;;;12.90;;
15022;SDS011;19850;49.576;10.880;2023-03-01T11:00:26;15.37;;;12.37;;
15022;SDS011;19850;49.576;10.880;2023-03-01T11:04:30;14.17;;;11.80;;
15022;SDS011;19850;49.576;10.880;2023-03-01T11:08:34;14.83;;;12.43;;
15022;SDS011;19850;49.576;10.880;2023-03-01T11:12:40;14.20;;;12.80;;
15022;SDS011;19850;49.576;10.880;2023-03-01T11:16:43;14.50;;;11.80;;
15022;SDS011;19850;49.576;10.880;2023-03-01T11:20:47;13.15;;;11.75;;
15022;SDS011;19850;49.576;10.880;2023-03-01T11:24:53;12.47;;;11.13;;
15022;SDS011;19850;49.576;10.880;2023-03-01T11:29:15;29.57;;;13.43;;
15022;SDS011;19850;49.576;10.880;2023-03-01T11:33:24;26.93;;;12.97;;
15022;SDS011;19850;49.576;10.880;2023-03-01T11:37:37;19.80;;;11.03;;
15022;SDS011;19850;49.576;10.880;2023-03-01T11:41:42;13.65;;;12.25;;
15022;SDS011;19850;49.576;10.880;2023-03-01T11:45:54;14.03;;;12.43;;
15022;SDS011;19850;49.576;10.880;2023-03-01T11:50:09;13.97;;;12.50;;
15022;SDS011;19850;49.576;10.880;2023-03-01T11:54:19;14.40;;;12.20;;
15022;SDS011;19850;49.576;10.880;2023-03-01T11:58:36;13.33;;;11.93;;
15022;SDS011;19850;49.576;10.880;2023-03-01T12:02:51;16.10;;;12.33;;
15022;SDS011;19850;49.576;10.880;2023-03-01T12:07:05;13.20;;;11.80;;
15022;SDS011;19850;49.576;10.880;2023-03-01T12:11:20;14.07;;;12.20;;
15022;SDS011;19850;49.576;10.880;2023-03-01T12:19:58;12.93;;;11.63;;
15022;SDS011;19850;49.576;10.880;2023-03-01T12:24:17;13.80;;;10.90;;
15022;SDS011;19850;49.576;10.880;2023-03-01T12:28:42;12.97;;;11.53;;
15022;SDS011;19850;49.576;10.880;2023-03-01T12:32:56;16.57;;;12.87;;
15022;SDS011;19850;49.576;10.880;2023-03-01T12:37:13;13.00;;;11.57;;
15022;SDS011;19850;49.576;10.880;2023-03-01T12:45:48;12.70;;;11.13;;
15022;SDS011;19850;49.576;10.880;2023-03-01T12:49:57;14.93;;;11.77;;
15022;SDS011;19850;49.576;10.880;2023-03-01T12:54:05;13.40;;;11.63;;
15022;SDS011;19850;49.576;10.880;2023-03-01T12:58:13;12.67;;;11.37;;
15022;SDS011;19850;49.576;10.880;2023-03-01T13:02:23;12.87;;;11.30;;
15022;SDS011;19850;49.576;10.880;2023-03-01T13:06:29;15.23;;;12.53;;
15022;SDS011;19850;49.576;10.880;2023-03-01T13:10:47;14.17;;;12.50;;
15022;SDS011;19850;49.576;10.880;2023-03-01T13:14:53;12.73;;;11.43;;
15022;SDS011;19850;49.576;10.880;2023-03-01T13:19:05;15.10;;;12.07;;
15022;SDS011;19850;49.576;10.880;2023-03-01T13:23:11;16.87;;;13.70;;
15022;SDS011;19850;49.576;10.880;2023-03-01T13:27:23;15.93;;;13.00;;
15022;SDS011;19850;49.576;10.880;2023-03-01T13:36:05;14.77;;;13.13;;
15022;SDS011;19850;49.576;10.880;2023-03-01T13:44:56;14.50;;;12.97;;
15022;SDS011;19850;49.576;10.880;2023-03-01T13:49:00;14.27;;;12.03;;
15022;SDS011;19850;49.576;10.880;2023-03-01T13:53:05;16.27;;;13.03;;
15022;SDS011;19850;49.576;10.880;2023-03-01T13:57:12;15.80;;;13.33;;
15022;SDS011;19850;49.576;10.880;2023-03-01T14:01:25;14.30;;;12.10;;
15022;SDS011;19850;49.576;10.880;2023-03-01T14:05:31;14.30;;;12.80;;
15022;SDS011;19850;49.576;10.880;2023-03-01T14:09:34;15.83;;;12.00;;
15022;SDS011;19850;49.576;10.880;2023-03-01T14:13:45;14.27;;;12.77;;
15022;SDS011;19850;49.576;10.880;2023-03-01T14:17:54;14.07;;;12.67;;
15022;SDS011;19850;49.576;10.880;2023-03-01T14:22:16;15.37;;;12.30;;
15022;SDS011;19850;49.576;10.880;2023-03-01T14:26:22;13.97;;;12.10;;
15022;SDS011;19850;49.576;10.880;2023-03-01T14:30:26;12.93;;;11.63;;
15022;SDS011;19850;49.576;10.880;2023-03-01T14:34:31;13.87;;;12.30;;
15022;SDS011;19850;49.576;10.880;2023-03-01T14:38:35;13.60;;;11.63;;
15022;SDS011;19850;49.576;10.880;2023-03-01T14:42:39;12.73;;;11.40;;
15022;SDS011;19850;49.576;10.880;2023-03-01T14:46:43;13.70;;;12.07;;
15022;SDS011;19850;49.576;10.880;2023-03-01T14:50:48;13.87;;;12.43;;
15022;SDS011;19850;49.576;10.880;2023-03-01T14:54:52;13.30;;;11.60;;
15022;SDS011;19850;49.576;10.880;2023-03-01T14:58:57;13.40;;;11.37;;
15022;SDS011;19850;49.576;10.880;2023-03-01T15:03:05;12.50;;;10.17;;
15022;SDS011;19850;49.576;10.880;2023-03-01T15:07:13;13.20;;;10.03;;
15022;SDS011;19850;49.576;10.880;2023-03-01T15:11:17;13.60;;;11.47;;
15022;SDS011;19850;49.576;10.880;2023-03-01T15:15:34;13.73;;;11.27;;
15022;SDS011;19850;49.576;10.880;2023-03-01T15:19:39;12.63;;;10.33;;
15022;SDS011;19850;49.576;10.880;2023-03-01T15:23:47;12.23;;;10.67;;
15022;SDS011;19850;49.576;10.880;2023-03-01T15:27:55;13.10;;;10.50;;
15022;SDS011;19850;49.576;10.880;2023-03-01T15:32:00;12.57;;;10.83;;
15022;SDS011;19850;49.576;10.880;2023-03-01T15:40:35;15.10;;;11.10;;
15022;SDS011;19850;49.576;10.880;2023-03-01T15:44:39;12.93;;;10.40;;
15022;SDS011;19850;49.576;10.880;2023-03-01T15:48:46;11.97;;;10.53;;
15022;SDS011;19850;49.576;10.880;2023-03-01T15:52:50;15.53;;;12.90;;
15022;SDS011;19850;49.576;10.880;2023-03-01T15:56:55;13.17;;;11.10;;
15022;SDS011;19850;49.576;10.880;2023-03-01T16:00:58;11.97;;;10.60;;
15022;SDS011;19850;49.576;10.880;2023-03-01T16:05:03;13.60;;;10.73;;
15022;SDS011;19850;49.576;10.880;2023-03-01T16:09:06;15.33;;;11.80;;
15022;SDS011;19850;49.576;10.880;2023-03-01T16:13:10;16.40;;;11.83;;
15022;SDS011;19850;49.576;10.880;2023-03-01T16:17:13;12.53;;;11.10;;
15022;SDS011;19850;49.576;10.880;2023-03-01T16:21:18;13.20;;;10.87;;
15022;SDS011;19850;49.576;10.880;2023-03-01T16:25:23;14.80;;;12.93;;
15022;SDS011;19850;49.576;10.880;2023-03-01T16:29:27;16.40;;;11.50;;
15022;SDS011;19850;49.576;10.880;2023-03-01T16:33:30;23.30;;;19.17;;
15022;SDS011;19850;49.576;10.880;2023-03-01T16:37:34;15.43;;;13.82;;
15022;SDS011;19850;49.576;10.880;2023-03-01T16:41:37;17.00;;;14.40;;
15022;SDS011;19850;49.576;10.880;2023-03-01T16:45:42;15.43;;;12.37;;
15022;SDS011;19850;49.576;10.880;2023-03-01T16:49:46;16.10;;;12.90;;
15022;SDS011;19850;49.576;10.880;2023-03-01T16:53:49;21.43;;;18.40;;
15022;SDS011;19850;49.576;10.880;2023-03-01T16:57:52;18.63;;;15.30;;
15022;SDS011;19850;49.576;10.880;2023-03-01T17:01:56;18.33;;;14.97;;
15022;SDS011;19850;49.576;10.880;2023-03-01T17:06:01;15.07;;;13.03;;
15022;SDS011;19850;49.576;10.880;2023-03-01T17:10:05;14.43;;;12.10;;
15022;SDS011;19850;49.576;10.880;2023-03-01T17:14:12;15.17;;;11.30;;
15022;SDS011;19850;49.576;10.880;2023-03-01T17:18:19;15.23;;;11.77;;
15022;SDS011;19850;49.576;10.880;2023-03-01T17:22:22;16.17;;;12.30;;
15022;SDS011;19850;49.576;10.880;2023-03-01T17:26:25;18.80;;;15.27;;
15022;SDS011;19850;49.576;10.880;2023-03-01T17:30:29;24.97;;;19.87;;
15022;SDS011;19850;49.576;10.880;2023-03-01T17:34:33;19.90;;;16.20;;
15022;SDS011;19850;49.576;10.880;2023-03-01T17:38:40;16.83;;;14.00;;
15022;SDS011;19850;49.576;10.880;2023-03-01T17:42:43;17.37;;;14.00;;
15022;SDS011;19850;49.576;10.880;2023-03-01T17:46:46;18.00;;;15.20;;
15022;SDS011;19850;49.576;10.880;2023-03-01T17:50:50;16.90;;;13.97;;
15022;SDS011;19850;49.576;10.880;2023-03-01T17:54:53;15.00;;;13.40;;
15022;SDS011;19850;49.576;10.880;2023-03-01T17:58:56;18.13;;;13.83;;
15022;SDS011;19850;49.576;10.880;2023-03-01T18:02:59;16.23;;;13.63;;
15022;SDS011;19850;49.576;10.880;2023-03-01T18:07:06;14.40;;;12.33;;
15022;SDS011;19850;49.576;10.880;2023-03-01T18:11:09;15.00;;;13.20;;
15022;SDS011;19850;49.576;10.880;2023-03-01T18:15:14;15.73;;;12.97;;
15022;SDS011;19850;49.576;10.880;2023-03-01T18:19:20;16.57;;;13.67;;
15022;SDS011;19850;49.576;10.880;2023-03-01T18:23:27;15.93;;;13.50;;
15022;SDS011;19850;49.576;10.880;2023-03-01T18:27:32;18.70;;;13.90;;
15022;SDS011;19850;49.576;10.880;2023-03-01T18:31:34;17.10;;;12.93;;
15022;SDS011;19850;49.576;10.880;2023-03-01T18:35:37;35.80;;;28.20;;
15022;SDS011;19850;49.576;10.880;2023-03-01T18:39:42;27.03;;;21.87;;
15022;SDS011;19850;49.576;10.880;2023-03-01T18:43:45;23.17;;;16.20;;
15022;SDS011;19850;49.576;10.880;2023-03-01T18:47:48;18.33;;;14.77;;
15022;SDS011;19850;49.576;10.880;2023-03-01T18:51:51;20.70;;;15.80;;
15022;SDS011;19850;49.576;10.880;2023-03-01T18:55:59;19.63;;;14.87;;
15022;SDS011;19850;49.576;10.880;2023-03-01T19:00:02;18.10;;;15.93;;
15022;SDS011;19850;49.576;10.880;2023-03-01T19:04:06;19.13;;;16.13;;
15022;SDS011;19850;49.576;10.880;2023-03-01T19:08:11;18.23;;;15.93;;
15022;SDS011;19850;49.576;10.880;2023-03-01T19:12:15;21.57;;;18.20;;
15022;SDS011;19850;49.576;10.880;2023-03-01T19:16:18;21.20;;;18.97;;
15022;SDS011;19850;49.576;10.880;2023-03-01T19:20:22;27.00;;;18.90;;
15022;SDS011;19850;49.576;10.880;2023-03-01T19:24:25;23.77;;;17.80;;
15022;SDS011;19850;49.576;10.880;2023-03-01T19:28:29;22.03;;;17.47;;
15022;SDS011;19850;49.576;10.880;2023-03-01T19:32:32;97.40;;;36.17;;
15022;SDS011;19850;49.576;10.880;2023-03-01T19:36:35;41.93;;;23.13;;
15022;SDS011;19850;49.576;10.880;2023-03-01T19:40:40;30.07;;;19.20;;
15022;SDS011;19850;49.576;10.880;2023-03-01T19:44:45;35.60;;;27.40;;
15022;SDS011;19850;49.576;10.880;2023-03-01T19:48:47;20.33;;;17.40;;
15022;SDS011;19850;49.576;10.880;2023-03-01T19:52:51;19.97;;;16.57;;
15022;SDS011;19850;49.576;10.880;2023-03-01T19:56:53;21.00;;;17.30;;
15022;SDS011;19850;49.576;10.880;2023-03-01T20:00:58;18.30;;;16.33;;
15022;SDS011;19850;49.576;10.880;2023-03-01T20:05:01;19.60;;;16.67;;
15022;SDS011;19850;49.576;10.880;2023-03-01T20:09:05;18.33;;;16.27;;
15022;SDS011;19850;49.576;10.880;2023-03-01T20:13:21;20.57;;;16.53;;
15022;SDS011;19850;49.576;10.880;2023-03-01T20:17:25;18.40;;;16.13;;
15022;SDS011;19850;49.576;10.880;2023-03-01T20:21:28;20.93;;;16.40;;
15022;SDS011;19850;49.576;10.880;2023-03-01T20:25:33;20.10;;;16.50;;
15022;SDS011;19850;49.576;10.880;2023-03-01T20:29:36;18.70;;;16.70;;
15022;SDS011;19850;49.576;10.880;2023-03-01T20:33:41;23.43;;;18.80;;
15022;SDS011;19850;49.576;10.880;2023-03-01T20:37:44;29.73;;;23.53;;
15022;SDS011;19850;49.576;10.880;2023-03-01T20:41:46;24.63;;;19.50;;
15022;SDS011;19850;49.576;10.880;2023-03-01T20:45:49;22.43;;;17.53;;
15022;SDS011;19850;49.576;10.880;2023-03-01T20:49:57;19.37;;;16.47;;
15022;SDS011;19850;49.576;10.880;2023-03-01T20:54:04;20.77;;;16.83;;
15022;SDS011;19850;49.576;10.880;2023-03-01T20:58:20;21.90;;;17.13;;
15022;SDS011;19850;49.576;10.880;2023-03-01T21:02:36;23.83;;;17.63;;
15022;SDS011;19850;49.576;10.880;2023-03-01T21:06:45;21.87;;;18.13;;
15022;SDS011;19850;49.576;10.880;2023-03-01T21:10:49;23.13;;;17.07;;
15022;SDS011;19850;49.576;10.880;2023-03-01T21:14:53;20.30;;;16.50;;
15022;SDS011;19850;49.576;10.880;2023-03-01T21:19:00;20.63;;;17.60;;
15022;SDS011;19850;49.576;10.880;2023-03-01T21:23:06;21.80;;;17.27;;
15022;SDS011;19850;49.576;10.880;2023-03-01T21:27:10;23.87;;;17.27;;
15022;SDS011;19850;49.576;10.880;2023-03-01T21:31:15;20.23;;;17.33;;
15022;SDS011;19850;49.576;10.880;2023-03-01T21:35:19;22.17;;;18.03;;
15022;SDS011;19850;49.576;10.880;2023-03-01T21:39:24;20.33;;;16.93;;
15022;SDS011;19850;49.576;10.880;2023-03-01T21:43:29;21.33;;;16.47;;
15022;SDS011;19850;49.576;10.880;2023-03-01T21:47:31;22.67;;;18.00;;
15022;SDS011;19850;49.576;10.880;2023-03-01T21:51:36;21.30;;;17.63;;
15022;SDS011;19850;49.576;10.880;2023-03-01T21:55:46;20.70;;;17.90;;
15022;SDS011;19850;49.576;10.880;2023-03-01T21:59:49;20.70;;;17.17;;
15022;SDS011;19850;49.576;10.880;2023-03-01T22:03:53;23.63;;;18.33;;
15022;SDS011;19850;49.576;10.880;2023-03-01T22:07:58;23.17;;;18.70;;
15022;SDS011;19850;49.576;10.880;2023-03-01T22:12:03;21.47;;;18.27;;
15022;SDS011;19850;49.576;10.880;2023-03-01T22:16:06;24.40;;;17.87;;
15022;SDS011;19850;49.576;10.880;2023-03-01T22:20:10;21.97;;;18.13;;
15022;SDS011;19850;49.576;10.880;2023-03-01T22:24:13;21.93;;;17.63;;
15022;SDS011;19850;49.576;10.880;2023-03-01T22:28:17;24.07;;;18.87;;
15022;SDS011;19850;49.576;10.880;2023-03-01T22:32:20;20.73;;;17.27;;
15022;SDS011;19850;49.576;10.880;2023-03-01T22:36:24;25.87;;;19.47;;
15022;SDS011;19850;49.576;10.880;2023-03-01T22:40:27;22.83;;;18.23;;
15022;SDS011;19850;49.576;10.880;2023-03-01T22:44:34;22.63;;;18.23;;
15022;SDS011;19850;49.576;10.880;2023-03-01T22:48:37;22.77;;;17.47;;
15022;SDS011;19850;49.576;10.880;2023-03-01T22:52:40;24.47;;;18.33;;
15022;SDS011;19850;49.576;10.880;2023-03-01T22:56:46;21.80;;;18.50;;
15022;SDS011;19850;49.576;10.880;2023-03-01T23:00:53;19.93;;;17.10;;
15022;SDS011;19850;49.576;10.880;2023-03-01T23:04:56;22.60;;;18.23;;
15022;SDS011;19850;49.576;10.880;2023-03-01T23:08:59;24.67;;;18.13;;
15022;SDS011;19850;49.576;10.880;2023-03-01T23:13:04;20.60;;;17.00;;
15022;SDS011;19850;49.576;10.880;2023-03-01T23:17:08;21.37;;;17.17;;
15022;SDS011;19850;49.576;10.880;2023-03-01T23:21:14;22.10;;;17.77;;
15022;SDS011;19850;49.576;10.880;2023-03-01T23:25:19;24.87;;;18.77;;
15022;SDS011;19850;49.576;10.880;2023-03-01T23:29:22;22.90;;;17.70;;
15022;SDS011;19850;49.576;10.880;2023-03-01T23:33:29;25.03;;;17.67;;
15022;SDS011;19850;49.576;10.880;2023-03-01T23:37:37;22.10;;;16.93;;
15022;SDS011;19850;49.576;10.880;2023-03-01T23:41:40;21.17;;;17.57;;
15022;SDS011;19850;49.576;10.880;2023-03-01T23:45:43;21.13;;;17.47;;
15022;SDS011;19850;49.576;10.880;2023-03-01T23:49:54;23.47;;;18.03;;
15022;SDS011;19850;49.576;10.880;2023-03-01T23:53:59;21.80;;;17.10;;
15022;SDS011;19850;49.576;10.880;2023-03-01T23:58:05;19.57;;;16.53;;
